createdAt,value
2022-12-14T00:01:27.243Z,95.21
2022-12-14T00:06:21.633Z,95.13
2022-12-14T00:11:14.507Z,95.49
2022-12-14T00:16:09.107Z,95.62
2022-12-14T00:21:06.568Z,95.21
2022-12-14T00:25:58.504Z,95.03
2022-12-14T00:30:58.502Z,94.48
2022-12-14T00:35:50.228Z,94.75
2022-12-14T00:40:41.915Z,94.17
2022-12-14T00:45:33.824Z,94.61
2022-12-14T00:50:25.504Z,94.57
2022-12-14T00:55:17.348Z,94.10
2022-12-14T01:00:09.673Z,94.17
2022-12-14T01:05:01.270Z,94.08
2022-12-14T01:09:52.935Z,94.36
2022-12-14T01:14:46.710Z,93.49
2022-12-14T01:19:38.605Z,93.70
2022-12-14T01:24:30.554Z,93.49
2022-12-14T01:29:22.291Z,93.59
2022-12-14T01:34:13.984Z,93.08
2022-12-14T01:39:13.954Z,92.94
2022-12-14T01:44:08.730Z,92.25
2022-12-14T01:49:23.362Z,92.56
2022-12-14T01:54:16.120Z,92.27
2022-12-14T01:59:15.475Z,92.49
2022-12-14T02:04:08.662Z,93.16
2022-12-14T02:09:00.433Z,92.79
2022-12-14T02:13:52.160Z,92.98
2022-12-14T02:18:43.789Z,93.83
2022-12-14T02:23:50.742Z,93.94
2022-12-14T02:29:01.258Z,93.88
2022-12-14T02:34:15.341Z,93.68
2022-12-14T02:39:17.326Z,94.05
2022-12-14T02:44:15.016Z,94.67
2022-12-14T02:49:10.491Z,93.92
2022-12-14T02:54:14.643Z,93.70
2022-12-14T02:59:08.930Z,93.12
2022-12-14T03:04:01.350Z,92.31
2022-12-14T03:09:11.233Z,92.89
2022-12-14T03:14:12.949Z,93.12
2022-12-14T03:19:20.791Z,92.46
2022-12-14T03:24:17.890Z,92.77
2022-12-14T03:29:23.963Z,92.38
2022-12-14T03:34:18.526Z,91.69
2022-12-14T03:39:14.954Z,91.44
2022-12-14T03:44:44.718Z,90.97
2022-12-14T03:49:49.033Z,91.07
2022-12-14T03:54:54.601Z,91.43
2022-12-14T03:59:54.378Z,91.55
2022-12-14T04:04:50.336Z,91.90
2022-12-14T04:09:42.055Z,92.65
2022-12-14T04:14:58.243Z,93.08
2022-12-14T04:20:01.160Z,93.01
2022-12-14T04:25:38.710Z,92.92
2022-12-14T04:30:35.756Z,93.00
2022-12-14T04:35:37.453Z,92.92
2022-12-14T04:41:01.555Z,92.91
2022-12-14T04:45:59.302Z,92.93
2022-12-14T04:51:04.689Z,92.10
2022-12-14T04:56:11.858Z,92.06
2022-12-14T05:01:35.491Z,93.05
2022-12-14T05:06:40.670Z,92.93
2022-12-14T05:11:57.459Z,91.62
2022-12-14T05:16:50.191Z,90.94
2022-12-14T05:21:47.746Z,91.63
2022-12-14T05:26:39.784Z,91.84
2022-12-14T05:31:31.621Z,92.84
2022-12-14T05:36:23.344Z,94.35
2022-12-14T05:41:15.327Z,95.00
2022-12-14T05:46:07.799Z,95.88
2022-12-14T05:51:13.180Z,95.87
2022-12-14T05:56:06.144Z,95.95
2022-12-14T06:01:11.606Z,96.19
2022-12-14T06:06:09.836Z,95.61
2022-12-14T06:11:10.437Z,95.39
2022-12-14T06:16:13.538Z,95.41
2022-12-14T06:21:05.908Z,94.95
2022-12-14T06:25:57.584Z,94.65
2022-12-14T06:30:49.457Z,94.07
2022-12-14T06:35:45.151Z,94.09
2022-12-14T06:40:37.108Z,94.14
2022-12-14T06:45:29.735Z,93.81
2022-12-14T06:50:21.507Z,93.83
2022-12-14T06:55:13.352Z,94.00
2022-12-14T07:00:05.472Z,93.64
2022-12-14T07:04:57.143Z,93.40
2022-12-14T07:09:48.960Z,93.66
2022-12-14T07:14:40.637Z,93.76
2022-12-14T07:19:32.304Z,94.92
2022-12-14T07:24:24.015Z,95.95
2022-12-14T07:29:17.054Z,95.91
2022-12-14T07:34:12.758Z,95.90
2022-12-14T07:39:05.122Z,95.98
2022-12-14T07:43:57.594Z,96.14
2022-12-14T07:48:54.458Z,95.85
2022-12-14T07:53:46.183Z,95.66
2022-12-14T07:58:38.551Z,95.14
2022-12-14T08:03:30.611Z,95.53
2022-12-14T08:08:22.758Z,95.56
2022-12-14T08:13:14.495Z,95.11
2022-12-14T08:18:06.339Z,95.23
2022-12-14T08:22:58.535Z,95.29
2022-12-14T08:27:50.296Z,95.10
2022-12-14T08:32:42.060Z,94.94
2022-12-14T08:37:33.824Z,95.54
2022-12-14T08:42:25.517Z,95.17
2022-12-14T08:47:17.322Z,95.03
2022-12-14T08:52:11.446Z,94.86
2022-12-14T08:57:04.803Z,95.38
2022-12-14T09:01:56.840Z,95.56
2022-12-14T09:06:48.755Z,95.33
2022-12-14T09:11:40.555Z,95.93
2022-12-14T09:16:32.645Z,95.76
2022-12-14T09:21:24.570Z,96.11
2022-12-14T09:31:17.162Z,96.96
2022-12-14T09:36:24.155Z,97.21
2022-12-14T09:41:34.422Z,96.29
2022-12-14T09:46:32.391Z,92.95
2022-12-14T09:51:31.815Z,94.76
2022-12-14T09:56:23.775Z,91.66
2022-12-14T10:01:22.555Z,89.30
2022-12-14T10:06:47.947Z,84.05
2022-12-14T10:12:04.098Z,81.63
2022-12-14T10:16:55.729Z,81.36
2022-12-14T10:21:55.484Z,78.03
2022-12-14T10:26:51.967Z,78.51
2022-12-14T10:31:46.317Z,77.62
2022-12-14T10:36:54.169Z,77.49
2022-12-14T10:41:58.370Z,75.50
2022-12-14T10:46:59.737Z,73.96
2022-12-14T10:52:02.203Z,71.63
2022-12-14T10:56:54.070Z,73.40
2022-12-14T11:01:49.361Z,73.95
2022-12-14T11:06:41.228Z,72.20
2022-12-14T11:11:33.014Z,72.24
2022-12-14T11:16:33.674Z,71.77
2022-12-14T11:21:49.898Z,71.15
2022-12-14T11:26:43.385Z,69.27
2022-12-14T11:31:35.770Z,70.25
2022-12-14T11:36:42.251Z,68.91
2022-12-14T11:41:42.418Z,68.20
2022-12-14T11:46:50.065Z,69.17
2022-12-14T11:52:06.177Z,68.44
2022-12-14T11:57:08.686Z,67.53
2022-12-14T12:02:31.429Z,68.69
2022-12-14T12:07:36.921Z,68.05
2022-12-14T12:12:28.910Z,68.52
2022-12-14T12:17:43.593Z,67.75
2022-12-14T12:22:36.981Z,68.75
2022-12-14T12:27:29.479Z,69.58
2022-12-14T12:32:33.292Z,69.27
2022-12-14T12:37:55.138Z,71.08
2022-12-14T12:42:53.795Z,71.00
2022-12-14T12:47:52.499Z,70.89
2022-12-14T12:53:03.940Z,70.88
2022-12-14T12:57:59.264Z,70.47
2022-12-14T13:03:20.595Z,71.46
2022-12-14T13:08:26.977Z,70.75
2022-12-14T13:13:24.135Z,71.73
2022-12-14T13:18:57.726Z,72.26
2022-12-14T13:23:45.550Z,72.51
2022-12-14T13:29:08.342Z,73.17
2022-12-14T13:34:22.407Z,72.71
2022-12-14T13:39:16.849Z,74.04
2022-12-14T13:44:41.904Z,74.56
2022-12-14T13:49:36.362Z,75.49
2022-12-14T13:54:33.204Z,75.85
2022-12-14T13:59:39.990Z,76.60
2022-12-14T14:04:36.493Z,76.87
2022-12-14T14:09:31.323Z,77.16
2022-12-14T14:14:35.348Z,78.28
2022-12-14T14:19:35.008Z,78.42
2022-12-14T14:24:27.926Z,79.16
2022-12-14T14:29:27.061Z,79.78
2022-12-14T14:34:34.758Z,80.48
2022-12-14T14:39:57.757Z,80.73
2022-12-14T14:44:56.258Z,81.44
2022-12-14T14:49:54.976Z,81.53
2022-12-14T14:55:21.349Z,81.55
2022-12-14T15:00:02.761Z,81.88
2022-12-14T15:04:57.043Z,82.29
2022-12-14T15:09:58.261Z,82.21
2022-12-14T15:15:00.955Z,82.30
2022-12-14T15:19:58.276Z,82.36
2022-12-14T15:24:54.240Z,82.40
2022-12-14T15:29:49.376Z,82.52
2022-12-14T15:35:09.555Z,81.88
2022-12-14T15:40:16.758Z,81.62
2022-12-14T15:45:14.535Z,81.21
2022-12-14T15:50:24.075Z,81.57
2022-12-14T15:55:37.919Z,81.54
2022-12-14T16:00:29.823Z,81.44
2022-12-14T16:05:22.720Z,80.97
2022-12-14T16:10:23.858Z,81.26
2022-12-14T16:15:34.087Z,80.98
2022-12-14T16:20:29.870Z,80.76
2022-12-14T16:25:21.759Z,80.20
2022-12-14T16:30:35.457Z,80.41
2022-12-14T16:35:27.207Z,80.23
2022-12-14T16:40:34.358Z,80.50
2022-12-14T16:45:31.904Z,81.06
2022-12-14T16:50:55.047Z,80.80
2022-12-14T16:56:04.714Z,81.60
2022-12-14T17:01:08.105Z,81.02
2022-12-14T17:06:02.914Z,81.87
2022-12-14T17:10:55.110Z,81.75
2022-12-14T17:16:05.962Z,81.46
2022-12-14T17:20:58.583Z,82.36
2022-12-14T17:25:50.916Z,81.87
2022-12-14T17:30:42.656Z,82.25
2022-12-14T17:35:34.520Z,81.92
2022-12-14T17:40:27.214Z,82.33
2022-12-14T17:45:25.238Z,82.06
2022-12-14T17:50:18.025Z,82.34
2022-12-14T17:55:24.395Z,82.95
2022-12-14T18:00:41.735Z,82.26
2022-12-14T18:05:33.984Z,82.13
2022-12-14T18:10:26.532Z,82.96
2022-12-14T18:15:22.636Z,83.39
2022-12-14T18:20:14.360Z,82.97
2022-12-14T18:25:38.238Z,82.53
2022-12-14T18:30:36.941Z,83.24
2022-12-14T18:35:33.962Z,82.53
2022-12-14T18:40:28.338Z,82.93
2022-12-14T18:45:22.737Z,82.59
2022-12-14T18:50:16.173Z,82.64
2022-12-14T18:55:29.932Z,83.48
2022-12-14T19:00:25.020Z,83.35
2022-12-14T19:05:19.461Z,83.41
2022-12-14T19:10:17.090Z,83.50
2022-12-14T19:15:15.699Z,83.28
2022-12-14T19:20:08.080Z,83.23
2022-12-14T19:24:59.900Z,83.51
2022-12-14T19:29:51.552Z,83.67
2022-12-14T19:34:43.296Z,83.39
2022-12-14T19:39:35.123Z,82.93
2022-12-14T19:44:27.568Z,82.45
2022-12-14T19:49:19.463Z,82.77
2022-12-14T19:54:12.333Z,82.05
2022-12-14T19:59:04.117Z,83.11
2022-12-14T20:03:55.965Z,82.78
2022-12-14T20:08:49.621Z,83.06
2022-12-14T20:13:41.623Z,83.31
2022-12-14T20:18:33.836Z,83.04
2022-12-14T20:23:25.535Z,82.47
2022-12-14T20:28:17.203Z,82.18
2022-12-14T20:33:08.897Z,82.12
2022-12-14T20:38:00.787Z,81.55
2022-12-14T20:42:54.264Z,82.04
2022-12-14T20:47:46.220Z,81.49
2022-12-14T20:52:38.519Z,81.45
2022-12-14T20:57:33.143Z,81.84
2022-12-14T21:02:25.804Z,81.57
2022-12-14T21:07:21.406Z,81.84
2022-12-14T21:12:23.491Z,82.04
2022-12-14T21:17:15.423Z,82.07
2022-12-14T21:22:10.636Z,82.31
2022-12-14T21:27:03.239Z,81.83
2022-12-14T21:31:55.306Z,81.93
2022-12-14T21:36:47.603Z,81.72
2022-12-14T21:41:58.484Z,82.14
2022-12-14T21:46:50.325Z,81.80
2022-12-14T21:51:42.476Z,81.85
2022-12-14T21:56:57.031Z,81.83
2022-12-14T22:01:48.895Z,81.80
2022-12-14T22:06:40.843Z,81.92
2022-12-14T22:11:32.924Z,82.24
2022-12-14T22:16:25.032Z,81.59
2022-12-14T22:21:16.718Z,82.03
2022-12-14T22:26:08.546Z,81.74
2022-12-14T22:31:04.119Z,81.75
2022-12-14T22:35:56.371Z,81.76
2022-12-14T22:40:48.106Z,81.43
2022-12-14T22:45:39.944Z,81.80
2022-12-14T22:50:33.234Z,81.05
2022-12-14T22:55:27.851Z,80.64
2022-12-14T23:00:19.612Z,80.87
2022-12-14T23:05:12.119Z,80.89
2022-12-14T23:10:23.800Z,80.34
2022-12-14T23:15:34.744Z,80.18
2022-12-14T23:20:45.354Z,79.83
2022-12-14T23:25:55.684Z,81.02
2022-12-14T23:31:06.459Z,81.11
2022-12-14T23:36:20.025Z,80.50
2022-12-14T23:41:30.820Z,81.17
2022-12-14T23:46:41.102Z,80.33
2022-12-14T23:51:51.619Z,80.46
2022-12-14T23:57:01.894Z,80.28
